Time;durP1;ratioP1;P1;durP2;ratioP2;P2;SDS_P1;SDS_P2;PMS_P1;PMS_P2;Temp;Humidity;BMP_temperature;BMP_pressure;BME280_temperature;BME280_humidity;BME280_pressure;Samples;Min_cycle;Max_cycle;Signal;HPM_P1;HPM_P2
2021/04/04 00:00:40;;;;;;;;;47.75;41.00;;;;;;;;12054158;29;9673;-59
2021/04/04 00:06:41;;;;;;;;;50.00;39.25;;;;;;;;12053374;29;8869;-58
2021/04/04 00:12:42;;;;;;;;;46.25;40.25;;;;;;;;12008455;29;8918;-57
2021/04/04 00:18:44;;;;;;;;;43.50;37.00;;;;;;;;12009252;29;8898;-58
2021/04/04 00:24:45;;;;;;;;;41.25;36.25;;;;;;;;12007338;29;8914;-57
2021/04/04 00:30:47;;;;;;;;;38.75;35.00;;;;;;;;12007605;29;8872;-58
2021/04/04 00:36:49;;;;;;;;;44.75;35.50;;;;;;;;12007806;29;8888;-58
2021/04/04 00:42:51;;;;;;;;;35.25;34.50;;;;;;;;12007922;29;8882;-56
2021/04/04 00:48:52;;;;;;;;;42.00;38.00;;;;;;;;12008156;29;8887;-56
2021/04/04 00:54:54;;;;;;;;;41.00;36.00;;;;;;;;12007261;29;8856;-58
2021/04/04 01:00:55;;;;;;;;;50.75;41.75;;;;;;;;12007104;29;8868;-58
2021/04/04 01:06:57;;;;;;;;;42.00;40.75;;;;;;;;12006727;29;8876;-58
2021/04/04 01:13:06;;;;;;;;;45.25;40.50;;;;;;;;12006817;29;8875;-58
2021/04/04 01:19:42;;;;;;;;;45.00;40.50;;;;;;;;12008057;29;8852;-58
2021/04/04 01:26:01;;;;;;;;;54.50;46.25;;;;;;;;12034174;29;8893;-57
2021/04/04 01:32:04;;;;;;;;;52.50;44.00;;;;;;;;12052928;29;8889;-58
2021/04/04 01:38:11;;;;;;;;;44.50;39.00;;;;;;;;12009568;29;8875;-59
2021/04/04 01:44:19;;;;;;;;;41.00;38.50;;;;;;;;12014888;29;8867;-58
2021/04/04 01:50:21;;;;;;;;;35.50;32.50;;;;;;;;12013896;29;8876;-59
2021/04/04 01:56:23;;;;;;;;;44.00;38.50;;;;;;;;12013419;29;8899;-58
2021/04/04 02:02:25;;;;;;;;;39.00;36.00;;;;;;;;12014087;29;8884;-58
2021/04/04 02:08:27;;;;;;;;;37.00;34.75;;;;;;;;12013253;29;8852;-58
2021/04/04 02:14:29;;;;;;;;;48.50;43.00;;;;;;;;12014365;29;8871;-57
2021/04/04 02:20:32;;;;;;;;;26.00;24.50;;;;;;;;12012271;29;8891;-57
2021/04/04 02:26:33;;;;;;;;;20.75;17.00;;;;;;;;12012657;29;8930;-58
2021/04/04 02:32:39;;;;;;;;;17.00;14.00;;;;;;;;12013782;29;8884;-57
2021/04/04 02:38:47;;;;;;;;;19.25;17.50;;;;;;;;12011365;29;8883;-57
2021/04/04 02:44:52;;;;;;;;;19.00;17.75;;;;;;;;12013178;29;8962;-58
2021/04/04 02:50:56;;;;;;;;;15.75;15.75;;;;;;;;12010743;29;8856;-57
2021/04/04 02:56:59;;;;;;;;;12.25;12.00;;;;;;;;12010910;29;8887;-59
2021/04/04 03:03:02;;;;;;;;;7.00;7.00;;;;;;;;12011969;29;8879;-58
2021/04/04 03:09:04;;;;;;;;;6.50;6.50;;;;;;;;12010700;29;8868;-57
2021/04/04 03:15:13;;;;;;;;;10.50;9.00;;;;;;;;12011149;29;8864;-58
2021/04/04 03:21:16;;;;;;;;;14.75;10.75;;;;;;;;12010077;29;8891;-57
2021/04/04 03:27:18;;;;;;;;;9.25;8.00;;;;;;;;12009284;29;8871;-58
2021/04/04 03:33:21;;;;;;;;;9.75;6.25;;;;;;;;12009706;29;8990;-58
2021/04/04 03:39:23;;;;;;;;;11.50;9.50;;;;;;;;12009028;29;8879;-58
2021/04/04 03:45:25;;;;;;;;;7.75;6.00;;;;;;;;12011061;29;8865;-58
2021/04/04 03:51:29;;;;;;;;;10.25;7.25;;;;;;;;12008111;29;8860;-58
2021/04/04 03:57:33;;;;;;;;;6.75;6.75;;;;;;;;12008033;29;8878;-57
2021/04/04 04:03:37;;;;;;;;;9.00;7.25;;;;;;;;12008192;29;8888;-57
2021/04/04 04:09:41;;;;;;;;;13.25;12.25;;;;;;;;12008474;29;8874;-58
2021/04/04 04:15:42;;;;;;;;;6.75;6.75;;;;;;;;12008943;29;8887;-59
2021/04/04 04:21:45;;;;;;;;;10.50;9.50;;;;;;;;12007400;29;8867;-57
2021/04/04 04:27:48;;;;;;;;;10.00;8.50;;;;;;;;12008082;29;8868;-57
2021/04/04 04:33:54;;;;;;;;;10.75;9.75;;;;;;;;12008790;29;8875;-59
2021/04/04 04:39:58;;;;;;;;;7.50;7.50;;;;;;;;12006539;29;8872;-58
2021/04/04 04:46:00;;;;;;;;;9.00;9.00;;;;;;;;12008536;29;8864;-59
2021/04/04 04:52:02;;;;;;;;;5.75;5.75;;;;;;;;12006346;29;8872;-58
2021/04/04 04:58:05;;;;;;;;;15.00;11.50;;;;;;;;12007263;29;8911;-58
2021/04/04 05:04:08;;;;;;;;;13.00;13.00;;;;;;;;12006058;29;8894;-58
2021/04/04 05:10:12;;;;;;;;;18.00;14.50;;;;;;;;12007289;29;8898;-57
2021/04/04 05:16:15;;;;;;;;;15.50;14.25;;;;;;;;12017129;29;8868;-58
2021/04/04 05:22:17;;;;;;;;;15.25;14.25;;;;;;;;12015255;29;8867;-58
2021/04/04 05:28:19;;;;;;;;;14.50;14.00;;;;;;;;12016369;29;8858;-58
2021/04/04 05:34:23;;;;;;;;;13.00;13.00;;;;;;;;12016085;29;9638;-58
2021/04/04 05:40:26;;;;;;;;;9.50;9.50;;;;;;;;12013873;29;8860;-58
2021/04/04 05:46:38;;;;;;;;;17.50;12.50;;;;;;;;12015802;29;8867;-58
2021/04/04 05:52:52;;;;;;;;;14.00;12.00;;;;;;;;12013924;29;9654;-59
2021/04/04 05:59:00;;;;;;;;;10.50;10.50;;;;;;;;12015024;29;8934;-57
2021/04/04 06:05:26;;;;;;;;;17.50;17.50;;;;;;;;12028312;29;8869;-58
2021/04/04 06:11:49;;;;;;;;;13.00;13.00;;;;;;;;12059714;29;9884;-60
2021/04/04 06:18:04;;;;;;;;;11.75;11.75;;;;;;;;12059296;29;8876;-58
2021/04/04 06:24:15;;;;;;;;;10.50;10.25;;;;;;;;12032859;29;8881;-58
2021/04/04 06:37:10;;;;;;;;;13.25;10.50;;;;;;;;12012679;29;8864;-57
2021/04/04 06:43:46;;;;;;;;;8.00;7.00;;;;;;;;12021632;29;8861;-60
2021/04/04 06:50:06;;;;;;;;;8.25;8.25;;;;;;;;12057605;29;9682;-59
2021/04/04 06:56:22;;;;;;;;;11.00;10.50;;;;;;;;12058214;29;8865;-60
2021/04/04 07:02:26;;;;;;;;;9.00;9.00;;;;;;;;12057026;29;8909;-57
2021/04/04 07:08:50;;;;;;;;;11.00;10.75;;;;;;;;12057592;29;8866;-59
2021/04/04 07:15:39;;;;;;;;;12.50;10.00;;;;;;;;12055686;29;9652;-59
2021/04/04 07:21:40;;;;;;;;;12.25;10.00;;;;;;;;12040416;29;8881;-59
2021/04/04 07:28:06;;;;;;;;;14.00;12.25;;;;;;;;12055290;29;8900;-59
2021/04/04 07:34:24;;;;;;;;;15.50;14.50;;;;;;;;12051095;29;8872;-59
2021/04/04 07:40:38;;;;;;;;;17.75;16.00;;;;;;;;12010098;29;8875;-58
2021/04/04 07:47:27;;;;;;;;;13.25;13.25;;;;;;;;12010067;29;8848;-58
2021/04/04 07:53:54;;;;;;;;;15.00;13.25;;;;;;;;12004457;29;8887;-59
2021/04/04 08:00:07;;;;;;;;;20.00;18.50;;;;;;;;12039221;29;8893;-58
2021/04/04 08:06:12;;;;;;;;;19.00;18.00;;;;;;;;12053365;29;8869;-59
2021/04/04 08:12:33;;;;;;;;;26.75;26.75;;;;;;;;12006796;29;8892;-59
2021/04/04 08:18:36;;;;;;;;;21.75;20.25;;;;;;;;12008462;29;8876;-58
2021/04/04 08:24:48;;;;;;;;;17.00;15.75;;;;;;;;12007337;29;8864;-59
2021/04/04 08:30:55;;;;;;;;;20.00;19.25;;;;;;;;12043706;29;8849;-59
2021/04/04 08:37:05;;;;;;;;;23.50;22.50;;;;;;;;12052202;29;8889;-58
2021/04/04 08:43:09;;;;;;;;;17.00;17.00;;;;;;;;12054083;29;9677;-59
2021/04/04 08:49:12;;;;;;;;;22.67;20.67;;;;;;;;12058920;29;8873;-58
2021/04/04 08:55:21;;;;;;;;;21.75;20.75;;;;;;;;12062207;29;8890;-61
2021/04/04 09:01:32;;;;;;;;;19.75;19.50;;;;;;;;12062439;29;9020;-58
2021/04/04 09:07:42;;;;;;;;;23.25;20.00;;;;;;;;12060329;29;9685;-59
2021/04/04 09:13:45;;;;;;;;;22.00;20.50;;;;;;;;12061878;29;8869;-60
2021/04/04 09:19:47;;;;;;;;;22.25;19.75;;;;;;;;12060773;29;8865;-58
2021/04/04 09:25:53;;;;;;;;;23.00;20.25;;;;;;;;12061359;29;9587;-58
2021/04/04 09:31:56;;;;;;;;;19.75;18.25;;;;;;;;12059903;29;8901;-59
2021/04/04 09:38:01;;;;;;;;;21.50;19.50;;;;;;;;12060180;29;8898;-59
2021/04/04 09:44:05;;;;;;;;;23.00;19.25;;;;;;;;12061636;29;8865;-60
2021/04/04 09:50:28;;;;;;;;;21.00;19.50;;;;;;;;12051278;29;8880;-59
2021/04/04 09:56:31;;;;;;;;;21.50;20.50;;;;;;;;12014520;29;8883;-59
2021/04/04 10:02:34;;;;;;;;;19.75;19.00;;;;;;;;12012652;29;8918;-65
2021/04/04 10:08:36;;;;;;;;;21.50;20.75;;;;;;;;12014021;29;8868;-59
2021/04/04 10:14:58;;;;;;;;;18.50;18.50;;;;;;;;12014767;29;8864;-59
2021/04/04 10:21:00;;;;;;;;;19.25;18.25;;;;;;;;12011556;29;8880;-61
2021/04/04 10:27:29;;;;;;;;;23.00;22.25;;;;;;;;12014095;29;8955;-59
2021/04/04 10:33:30;;;;;;;;;19.25;19.25;;;;;;;;12012035;29;8859;-59
2021/04/04 10:39:32;;;;;;;;;23.25;23.25;;;;;;;;12013598;29;9708;-60
2021/04/04 10:45:34;;;;;;;;;20.00;18.25;;;;;;;;12012881;29;8915;-60
2021/04/04 10:51:35;;;;;;;;;25.50;22.25;;;;;;;;12012396;29;8864;-60
2021/04/04 10:57:38;;;;;;;;;22.50;22.50;;;;;;;;12012020;29;8877;-60
2021/04/04 11:03:41;;;;;;;;;25.50;25.50;;;;;;;;12024591;29;8905;-59
2021/04/04 11:09:46;;;;;;;;;29.50;29.25;;;;;;;;12056977;29;8850;-59
2021/04/04 11:15:55;;;;;;;;;28.50;26.00;;;;;;;;12055227;29;8869;-60
2021/04/04 11:22:00;;;;;;;;;27.00;25.33;;;;;;;;12055734;29;9607;-60
2021/04/04 11:28:17;;;;;;;;;31.00;27.75;;;;;;;;12057742;29;8873;-62
2021/04/04 11:34:34;;;;;;;;;38.50;32.75;;;;;;;;12056923;29;8853;-60
2021/04/04 11:40:36;;;;;;;;;27.75;25.25;;;;;;;;12057306;29;9723;-58
2021/04/04 11:46:48;;;;;;;;;29.50;29.50;;;;;;;;12053886;29;8904;-60
2021/04/04 11:52:51;;;;;;;;;27.00;25.50;;;;;;;;12012606;29;8860;-59
2021/04/04 11:58:53;;;;;;;;;32.25;32.25;;;;;;;;12009240;29;9007;-59
2021/04/04 12:05:15;;;;;;;;;32.75;31.75;;;;;;;;12010067;29;8884;-60
2021/04/04 12:11:17;;;;;;;;;33.00;31.25;;;;;;;;12009381;29;8856;-60
2021/04/04 12:17:21;;;;;;;;;36.25;32.75;;;;;;;;12008101;29;9657;-60
2021/04/04 12:23:22;;;;;;;;;40.50;36.75;;;;;;;;12009524;29;8880;-60
2021/04/04 12:29:24;;;;;;;;;39.00;35.50;;;;;;;;12007423;29;8891;-60
2021/04/04 12:35:26;;;;;;;;;41.50;35.50;;;;;;;;12008793;29;8879;-59
2021/04/04 12:41:27;;;;;;;;;39.75;37.25;;;;;;;;12007833;29;8875;-62
2021/04/04 12:47:29;;;;;;;;;45.75;39.75;;;;;;;;12007636;29;9107;-60
2021/04/04 12:53:33;;;;;;;;;47.25;40.50;;;;;;;;12008709;29;8868;-60
2021/04/04 12:59:35;;;;;;;;;46.50;38.50;;;;;;;;12007792;29;8880;-60
2021/04/04 13:05:48;;;;;;;;;46.75;42.75;;;;;;;;12005923;29;8868;-60
2021/04/04 13:11:49;;;;;;;;;42.00;38.50;;;;;;;;12006150;29;8863;-60
2021/04/04 13:17:51;;;;;;;;;42.25;38.50;;;;;;;;12005945;29;8856;-60
2021/04/04 13:23:57;;;;;;;;;51.00;42.25;;;;;;;;12008149;29;9627;-60
2021/04/04 13:30:00;;;;;;;;;54.25;43.00;;;;;;;;12006595;29;8871;-58
2021/04/04 13:36:21;;;;;;;;;43.25;39.50;;;;;;;;12015425;29;8880;-59
2021/04/04 13:42:28;;;;;;;;;60.50;44.50;;;;;;;;12014153;29;8908;-59
2021/04/04 13:48:31;;;;;;;;;48.00;42.00;;;;;;;;12014712;29;8878;-61
2021/04/04 13:54:35;;;;;;;;;42.75;38.75;;;;;;;;12015167;29;8867;-60
2021/04/04 14:00:42;;;;;;;;;51.50;43.00;;;;;;;;12014084;29;8876;-58
2021/04/04 14:06:45;;;;;;;;;50.00;41.00;;;;;;;;12014904;29;8910;-60
2021/04/04 14:12:47;;;;;;;;;51.00;44.50;;;;;;;;12013370;29;9055;-58
2021/04/04 14:18:48;;;;;;;;;48.75;40.25;;;;;;;;12013397;29;8883;-60
2021/04/04 14:24:50;;;;;;;;;50.75;41.25;;;;;;;;12011902;29;8872;-59
2021/04/04 14:30:52;;;;;;;;;45.25;41.25;;;;;;;;12016897;29;8857;-60
2021/04/04 14:36:54;;;;;;;;;39.25;37.75;;;;;;;;12058913;29;9679;-60
2021/04/04 14:42:56;;;;;;;;;50.50;41.75;;;;;;;;12055857;29;8887;-60
2021/04/04 14:48:58;;;;;;;;;46.50;41.50;;;;;;;;12012578;29;8860;-60
2021/04/04 14:54:59;;;;;;;;;45.75;40.75;;;;;;;;12013224;29;8913;-59
2021/04/04 15:01:01;;;;;;;;;40.75;36.75;;;;;;;;12010827;29;8898;-59
2021/04/04 15:07:05;;;;;;;;;39.75;38.00;;;;;;;;12025275;29;8915;-59
2021/04/04 15:13:07;;;;;;;;;55.00;45.75;;;;;;;;12055114;29;8873;-60
2021/04/04 15:19:08;;;;;;;;;46.50;42.00;;;;;;;;12046595;29;9605;-63
2021/04/04 15:25:12;;;;;;;;;46.50;40.75;;;;;;;;12011481;29;8860;-60
2021/04/04 15:31:13;;;;;;;;;45.75;40.00;;;;;;;;12009772;29;8880;-60
2021/04/04 15:37:15;;;;;;;;;51.75;42.50;;;;;;;;12024979;29;8869;-59
2021/04/04 15:43:17;;;;;;;;;41.25;39.00;;;;;;;;12053869;29;8944;-58
2021/04/04 15:49:19;;;;;;;;;39.75;37.50;;;;;;;;12054817;29;8898;-60
2021/04/04 15:55:21;;;;;;;;;56.25;45.00;;;;;;;;12053872;29;8865;-61
2021/04/04 16:01:26;;;;;;;;;54.25;45.00;;;;;;;;12053574;29;9642;-60
2021/04/04 16:07:27;;;;;;;;;52.50;43.75;;;;;;;;12054903;29;8880;-60
2021/04/04 16:13:29;;;;;;;;;54.50;46.75;;;;;;;;12052927;29;9634;-60
2021/04/04 16:19:30;;;;;;;;;51.75;45.50;;;;;;;;12052149;29;8982;-60
2021/04/04 16:25:33;;;;;;;;;58.00;48.00;;;;;;;;12035864;29;8894;-60
2021/04/04 16:31:35;;;;;;;;;43.25;41.00;;;;;;;;12008232;29;9646;-59
2021/04/04 16:37:38;;;;;;;;;46.75;41.00;;;;;;;;12009445;29;8852;-60
2021/04/04 16:43:40;;;;;;;;;38.00;34.25;;;;;;;;12006929;29;9305;-61
2021/04/04 16:49:42;;;;;;;;;34.75;30.75;;;;;;;;12007715;29;8875;-61
2021/04/04 16:55:44;;;;;;;;;31.00;27.00;;;;;;;;12008533;29;9301;-58
2021/04/04 17:01:45;;;;;;;;;41.25;35.00;;;;;;;;12005320;29;8864;-59
2021/04/04 17:07:47;;;;;;;;;39.25;37.00;;;;;;;;12011270;29;8882;-60
2021/04/04 17:13:48;;;;;;;;;39.00;36.25;;;;;;;;12018396;29;8877;-58
2021/04/04 17:19:50;;;;;;;;;44.25;41.00;;;;;;;;12060901;29;8873;-59
2021/04/04 17:25:51;;;;;;;;;45.00;40.25;;;;;;;;12061958;29;8888;-59
2021/04/04 17:31:53;;;;;;;;;41.50;40.00;;;;;;;;12058400;29;8889;-58
2021/04/04 17:37:56;;;;;;;;;48.00;44.00;;;;;;;;12062003;29;8878;-59
2021/04/04 17:43:58;;;;;;;;;44.50;41.00;;;;;;;;12059102;29;9637;-61
2021/04/04 17:50:02;;;;;;;;;43.75;40.50;;;;;;;;12059179;29;8873;-58
2021/04/04 17:56:04;;;;;;;;;35.75;29.00;;;;;;;;12060193;29;8865;-59
2021/04/04 18:02:05;;;;;;;;;47.00;40.25;;;;;;;;12011813;29;8903;-59
2021/04/04 18:14:22;;;;;;;;;42.75;41.75;;;;;;;;12058731;29;10183;-60
2021/04/04 18:20:24;;;;;;;;;43.50;40.25;;;;;;;;12057927;29;8889;-58
2021/04/04 18:26:25;;;;;;;;;42.25;36.25;;;;;;;;12056729;29;8896;-59
2021/04/04 18:32:26;;;;;;;;;45.25;40.75;;;;;;;;12011605;29;8900;-59
2021/04/04 18:38:29;;;;;;;;;44.25;40.75;;;;;;;;12030626;29;8857;-60
2021/04/04 18:44:30;;;;;;;;;49.75;43.25;;;;;;;;12032819;29;8954;-59
2021/04/04 18:50:34;;;;;;;;;49.25;43.50;;;;;;;;12013490;29;8876;-59
2021/04/04 18:56:35;;;;;;;;;53.00;46.75;;;;;;;;12012360;29;8852;-58
2021/04/04 19:02:37;;;;;;;;;58.25;49.50;;;;;;;;12010740;29;8902;-59
2021/04/04 19:08:41;;;;;;;;;50.25;43.25;;;;;;;;12034537;29;8865;-59
2021/04/04 19:14:42;;;;;;;;;48.75;41.25;;;;;;;;12056061;29;8876;-58
2021/04/04 19:20:44;;;;;;;;;46.50;40.50;;;;;;;;12055667;29;9300;-59
2021/04/04 19:26:46;;;;;;;;;44.75;42.00;;;;;;;;12055585;29;8876;-58
2021/04/04 19:32:51;;;;;;;;;45.75;43.00;;;;;;;;12054707;29;8895;-60
2021/04/04 19:38:54;;;;;;;;;39.00;37.50;;;;;;;;12056222;29;8929;-58
2021/04/04 19:44:55;;;;;;;;;48.00;41.00;;;;;;;;12053926;29;8862;-57
2021/04/04 19:50:57;;;;;;;;;40.00;38.75;;;;;;;;12053783;29;8857;-58
2021/04/04 19:56:59;;;;;;;;;39.00;37.00;;;;;;;;12054390;29;8850;-60
2021/04/04 20:03:02;;;;;;;;;45.75;42.25;;;;;;;;12053882;29;8869;-59
2021/04/04 20:09:04;;;;;;;;;43.25;41.25;;;;;;;;12055038;29;8877;-59
2021/04/04 20:15:06;;;;;;;;;43.25;39.75;;;;;;;;12054443;29;9518;-59
2021/04/04 20:21:08;;;;;;;;;38.50;35.50;;;;;;;;12055701;29;8853;-59
2021/04/04 20:27:10;;;;;;;;;43.75;41.00;;;;;;;;12054292;29;8869;-58
2021/04/04 20:33:13;;;;;;;;;39.75;37.75;;;;;;;;12054267;29;8881;-58
2021/04/04 20:39:15;;;;;;;;;47.50;41.75;;;;;;;;12055382;29;8873;-57
2021/04/04 20:45:17;;;;;;;;;48.50;40.25;;;;;;;;12066797;29;8863;-58
2021/04/04 20:51:18;;;;;;;;;45.00;41.75;;;;;;;;12068896;29;8959;-58
2021/04/04 20:57:21;;;;;;;;;48.75;43.25;;;;;;;;12067229;29;8868;-58
2021/04/04 21:03:22;;;;;;;;;48.25;43.25;;;;;;;;12067108;29;8869;-58
2021/04/04 21:09:23;;;;;;;;;52.75;44.00;;;;;;;;12069007;29;8869;-59
2021/04/04 21:15:26;;;;;;;;;44.25;40.00;;;;;;;;12067531;29;8888;-58
2021/04/04 21:21:27;;;;;;;;;42.00;37.75;;;;;;;;12067692;29;8899;-58
2021/04/04 21:27:29;;;;;;;;;50.00;44.00;;;;;;;;12026192;29;8880;-59
2021/04/04 21:33:30;;;;;;;;;42.50;41.25;;;;;;;;12021861;29;8859;-59
2021/04/04 21:39:32;;;;;;;;;41.00;38.75;;;;;;;;12022851;29;8864;-58
2021/04/04 21:45:34;;;;;;;;;42.75;38.75;;;;;;;;12021670;29;8875;-59
2021/04/04 21:51:35;;;;;;;;;43.00;37.75;;;;;;;;12019935;29;9677;-60
2021/04/04 21:57:37;;;;;;;;;33.00;31.75;;;;;;;;12015007;29;8906;-58
2021/04/04 22:03:41;;;;;;;;;28.00;23.75;;;;;;;;12012621;29;8903;-59
2021/04/04 22:09:43;;;;;;;;;37.00;35.75;;;;;;;;12014159;29;8872;-59
2021/04/04 22:15:49;;;;;;;;;36.50;33.00;;;;;;;;12012963;29;8852;-58
2021/04/04 22:21:56;;;;;;;;;32.00;32.00;;;;;;;;12012915;29;8895;-59
2021/04/04 22:27:57;;;;;;;;;39.25;36.75;;;;;;;;12013821;29;9630;-59
2021/04/04 22:33:59;;;;;;;;;39.00;37.50;;;;;;;;12012502;29;9366;-58
2021/04/04 22:40:00;;;;;;;;;41.25;40.75;;;;;;;;12013431;29;8872;-58
2021/04/04 22:46:02;;;;;;;;;38.50;37.50;;;;;;;;12012660;29;8896;-57
2021/04/04 22:52:04;;;;;;;;;46.75;43.75;;;;;;;;12013724;29;8903;-57
2021/04/04 22:58:05;;;;;;;;;46.25;42.50;;;;;;;;12012233;29;9685;-58
2021/04/04 23:04:07;;;;;;;;;47.00;42.00;;;;;;;;12010355;29;8875;-58
2021/04/04 23:10:10;;;;;;;;;41.75;41.00;;;;;;;;12012642;29;8912;-58
2021/04/04 23:16:11;;;;;;;;;48.75;38.75;;;;;;;;12010103;29;8880;-57
2021/04/04 23:22:12;;;;;;;;;29.00;25.75;;;;;;;;12011095;29;8890;-57
2021/04/04 23:28:14;;;;;;;;;52.75;44.00;;;;;;;;12010277;29;8883;-57
2021/04/04 23:34:16;;;;;;;;;42.00;41.00;;;;;;;;12009723;29;8868;-58
2021/04/04 23:40:17;;;;;;;;;43.75;37.25;;;;;;;;12010604;29;8868;-58
2021/04/04 23:46:19;;;;;;;;;43.50;37.75;;;;;;;;12008099;29;8970;-58
2021/04/04 23:52:20;;;;;;;;;44.25;40.75;;;;;;;;12007858;29;8867;-58
2021/04/04 23:58:22;;;;;;;;;48.50;40.50;;;;;;;;12009915;29;8982;-58
